Time;durP1;ratioP1;P1;durP2;ratioP2;P2;SDS_P1;SDS_P2;PMS_P1;PMS_P2;Temp;Humidity;BMP_temperature;BMP_pressure;BME280_temperature;BME280_humidity;BME280_pressure;Samples;Min_cycle;Max_cycle;Signal;HPM_P1;HPM_P2
2022/05/24 00:02:11;;;;;;;4.75;2.70;;;;;;;16.95;84.92;100085.75;5012850;28;20026;-73
2022/05/24 00:04:36;;;;;;;8.88;4.55;;;;;;;16.88;85.09;100089.16;5012696;28;20079;-74
2022/05/24 00:07:02;;;;;;;6.25;3.10;;;;;;;16.97;84.78;100073.59;4994933;28;20068;-74
2022/05/24 00:09:28;;;;;;;6.28;2.95;;;;;;;17.07;83.70;100074.53;5012440;28;20058;-75
2022/05/24 00:11:53;;;;;;;5.35;3.00;;;;;;;17.03;82.86;100056.25;5012210;28;20028;-74
2022/05/24 00:15:19;;;;;;;7.40;3.28;;;;;;;17.16;82.16;100086.72;5012425;28;20038;-74
2022/05/24 00:17:06;;;;;;;6.13;2.70;;;;;;;16.79;83.65;100076.09;5012309;28;20042;-72
2022/05/24 00:19:32;;;;;;;5.80;3.38;;;;;;;16.66;84.78;100076.03;4992332;28;20053;-73
2022/05/24 00:21:58;;;;;;;6.45;3.33;;;;;;;16.62;84.23;100045.59;5011530;28;20030;-74
2022/05/24 00:24:23;;;;;;;5.50;3.03;;;;;;;17.01;83.73;100084.03;5012008;28;20392;-73
2022/05/24 00:26:48;;;;;;;6.15;3.10;;;;;;;16.88;83.26;100089.16;5012280;28;20492;-74
2022/05/24 00:29:14;;;;;;;8.10;3.10;;;;;;;16.75;83.66;100079.56;5012226;28;20492;-73
2022/05/24 00:31:39;;;;;;;6.28;3.10;;;;;;;16.62;84.62;100087.31;5012437;28;20026;-73
2022/05/24 00:34:05;;;;;;;9.98;3.88;;;;;;;16.45;85.29;100094.16;5012025;28;20369;-74
2022/05/24 00:36:30;;;;;;;7.18;3.42;;;;;;;16.14;86.38;100080.88;5011864;28;20545;-73
2022/05/24 00:38:56;;;;;;;7.03;3.40;;;;;;;16.04;87.05;100094.66;5011533;28;20034;-73
2022/05/24 00:41:30;;;;;;;6.15;3.22;;;;;;;15.91;87.42;100091.97;5012046;28;20022;-74
2022/05/24 00:43:58;;;;;;;6.60;3.30;;;;;;;15.67;87.39;100054.41;5007255;28;20026;-73
2022/05/24 00:46:47;;;;;;;6.28;3.13;;;;;;;16.04;86.73;100102.47;5008797;28;20427;-74
2022/05/24 00:49:24;;;;;;;9.05;3.67;;;;;;;15.82;88.07;100110.09;5010255;28;20088;-71
2022/05/24 00:51:56;;;;;;;6.15;3.20;;;;;;;15.78;88.72;100100.50;4992313;28;20097;-74
2022/05/24 00:54:22;;;;;;;9.57;4.10;;;;;;;15.48;89.37;100062.91;4991970;28;20029;-76
2022/05/24 00:56:50;;;;;;;6.53;3.20;;;;;;;15.37;89.67;100053.25;4992191;28;20093;-71
2022/05/24 00:59:43;;;;;;;5.68;3.20;;;;;;;15.47;89.82;100098.44;4992282;28;20141;-73
2022/05/24 01:02:08;;;;;;;5.68;3.33;;;;;;;15.49;89.78;100101.94;4931587;29;20044;-73
2022/05/24 01:04:34;;;;;;;5.25;3.33;;;;;;;15.27;89.89;100055.75;4931598;29;20119;-70
2022/05/24 01:07:00;;;;;;;6.63;3.42;;;;;;;15.52;89.87;100082.88;4931403;29;20103;-73
2022/05/24 01:09:29;;;;;;;6.07;3.33;;;;;;;15.45;91.08;100087.16;4931589;29;20040;-70
2022/05/24 01:12:03;;;;;;;8.02;3.60;;;;;;;15.52;91.43;100083.75;4931475;29;20113;-73
2022/05/24 01:14:30;;;;;;;5.32;3.28;;;;;;;15.53;91.86;100075.09;4930756;29;20146;-75
2022/05/24 01:16:57;;;;;;;8.20;4.22;;;;;;;15.71;92.42;100088.28;4931385;29;20098;-72
2022/05/24 01:19:45;;;;;;;6.25;3.63;;;;;;;15.76;91.87;100091.78;4931529;29;20044;-74
2022/05/24 01:22:36;;;;;;;9.48;3.63;;;;;;;15.93;91.57;100085.03;4931161;29;20399;-75
2022/05/24 01:25:32;;;;;;;10.00;3.28;;;;;;;16.09;90.29;100091.25;4874566;29;20096;-70
2022/05/24 01:28:00;;;;;;;7.97;3.47;;;;;;;16.17;89.69;100088.72;4874705;29;20583;-74
2022/05/24 01:30:26;;;;;;;5.85;3.30;;;;;;;16.33;88.94;100095.78;4874656;29;20124;-73
2022/05/24 01:38:24;;;;;;;4.80;3.10;;;;;;;16.41;87.44;100081.94;4877169;29;20097;-73
2022/05/24 01:40:52;;;;;;;6.78;3.60;;;;;;;16.52;88.05;100101.13;4893285;29;20119;-70
2022/05/24 01:43:21;;;;;;;6.23;3.20;;;;;;;16.54;88.30;100104.63;4893163;29;20103;-73
2022/05/24 01:45:52;;;;;;;6.25;3.20;;;;;;;16.18;87.61;100060.06;4892644;29;20041;-73
2022/05/24 01:48:25;;;;;;;7.03;3.55;;;;;;;16.37;88.09;100111.44;4893136;29;20127;-74
2022/05/24 01:50:53;;;;;;;5.28;3.25;;;;;;;16.17;88.53;100105.22;4893122;29;20040;-71
2022/05/24 01:53:26;;;;;;;8.00;3.70;;;;;;;16.16;87.55;100106.09;4893212;29;20127;-74
2022/05/24 01:55:56;;;;;;;7.47;3.15;;;;;;;16.10;87.45;100105.13;4877153;29;20037;-73
2022/05/24 01:58:26;;;;;;;10.43;3.53;;;;;;;16.03;87.22;100093.81;4876760;29;20080;-73
2022/05/24 02:01:34;;;;;;;6.25;3.28;;;;;;;16.03;87.35;100095.56;4894732;28;20088;-73
2022/05/24 02:04:01;;;;;;;7.07;3.75;;;;;;;16.06;87.33;100095.56;4912081;29;20109;-72
2022/05/24 02:06:28;;;;;;;5.25;2.83;;;;;;;15.95;88.34;100093.75;4911586;29;20036;-73
2022/05/24 02:08:55;;;;;;;5.75;3.50;;;;;;;15.83;88.51;100091.91;4911933;29;20040;-74
2022/05/24 02:11:24;;;;;;;6.70;3.97;;;;;;;15.59;89.13;100060.38;4911926;29;20564;-70
2022/05/24 02:13:54;;;;;;;7.65;3.53;;;;;;;15.70;88.61;100087.38;4911949;29;20844;-73
2022/05/24 02:16:23;;;;;;;6.07;3.30;;;;;;;15.75;88.01;100096.16;4884366;29;20329;-74
2022/05/24 02:18:52;;;;;;;6.05;3.58;;;;;;;15.30;87.91;100029.75;4929565;29;20123;-73
2022/05/24 02:21:18;;;;;;;5.65;3.50;;;;;;;15.72;87.49;100100.44;4930373;29;20036;-74
2022/05/24 02:23:48;;;;;;;5.97;3.30;;;;;;;15.58;88.02;100108.97;4930600;29;20138;-73
2022/05/24 02:26:16;;;;;;;7.25;3.88;;;;;;;15.42;87.94;100087.13;4930422;29;20039;-74
2022/05/24 02:28:42;;;;;;;6.22;3.60;;;;;;;15.05;90.63;100115.28;4930347;29;20055;-72
2022/05/24 02:31:17;;;;;;;6.22;3.22;;;;;;;15.07;90.29;100120.53;4930464;29;20035;-71
2022/05/24 02:33:43;;;;;;;9.02;3.78;;;;;;;15.10;90.00;100120.53;4930109;29;20044;-73
2022/05/24 02:36:09;;;;;;;6.55;3.97;;;;;;;15.11;90.15;100123.16;4930489;29;20035;-72
2022/05/24 02:38:35;;;;;;;8.30;3.55;;;;;;;14.91;89.80;100080.44;4930245;29;20493;-73
2022/05/24 02:43:45;;;;;;;6.22;3.40;;;;;;;15.16;89.73;100125.81;4990532;28;20045;-73
2022/05/24 02:46:11;;;;;;;8.88;3.42;;;;;;;15.11;90.06;100140.50;4972928;28;20015;-71
2022/05/24 02:48:37;;;;;;;8.05;3.70;;;;;;;14.90;89.66;100082.16;4990642;28;20034;-73
2022/05/24 02:51:09;;;;;;;7.10;4.03;;;;;;;15.05;90.31;100112.69;4990430;28;20496;-75
2022/05/24 02:53:35;;;;;;;9.55;4.05;;;;;;;15.20;90.18;100115.50;4990752;28;20031;-73
2022/05/24 02:56:02;;;;;;;8.23;3.85;;;;;;;15.04;89.92;100082.31;4990450;28;20106;-71
2022/05/24 02:58:28;;;;;;;8.55;3.78;;;;;;;15.26;90.07;100125.06;4990268;28;20553;-72
2022/05/24 03:00:53;;;;;;;7.03;4.00;;;;;;;15.22;89.75;100115.50;4990582;28;20169;-73
2022/05/24 03:03:19;;;;;;;11.68;4.05;;;;;;;15.30;89.93;100124.28;4990227;28;20042;-70
2022/05/24 03:05:44;;;;;;;7.50;4.25;;;;;;;15.29;89.63;100114.72;4990313;28;20058;-73
2022/05/24 03:10:53;;;;;;;8.77;4.10;;;;;;;15.24;90.50;100134.59;4992261;28;20121;-73
2022/05/24 03:16:10;;;;;;;9.63;4.55;;;;;;;15.18;91.19;100156.19;4993927;28;20036;-72
2022/05/24 03:18:36;;;;;;;8.05;4.13;;;;;;;15.34;90.98;100159.00;4994020;28;20393;-73
2022/05/24 03:21:02;;;;;;;11.57;4.50;;;;;;;15.25;90.70;100112.91;4994073;28;20030;-71
2022/05/24 03:23:27;;;;;;;6.38;4.10;;;;;;;15.53;89.45;100136.66;4993368;28;20030;-73
2022/05/24 03:25:53;;;;;;;7.85;4.60;;;;;;;15.49;88.82;100119.28;4993595;28;20061;-74
2022/05/24 03:28:20;;;;;;;7.30;4.25;;;;;;;15.47;88.49;100107.97;4993399;28;20030;-73
2022/05/24 03:30:46;;;;;;;10.27;4.68;;;;;;;15.60;88.90;100159.31;4993720;28;20027;-75
2022/05/24 03:33:12;;;;;;;10.30;4.88;;;;;;;15.47;89.59;100155.66;4993994;28;20038;-74
2022/05/24 03:35:38;;;;;;;11.00;4.20;;;;;;;15.33;91.00;100142.50;4993450;28;20026;-73
2022/05/24 03:38:03;;;;;;;8.70;4.53;;;;;;;15.35;91.62;100146.00;5004307;28;20034;-73
2022/05/24 03:40:29;;;;;;;7.15;4.30;;;;;;;15.39;91.89;100159.03;5013106;28;20033;-72
2022/05/24 03:42:55;;;;;;;13.23;4.97;;;;;;;15.23;93.09;100158.84;5001323;28;20502;-73
2022/05/24 03:45:21;;;;;;;10.93;4.95;;;;;;;15.26;92.95;100171.03;5013110;28;20026;-76
2022/05/24 03:47:47;;;;;;;8.23;4.18;;;;;;;15.06;93.18;100130.03;5013469;28;20041;-70
2022/05/24 03:50:13;;;;;;;7.65;4.75;;;;;;;15.11;93.78;100137.91;5012972;28;20026;-74
2022/05/24 03:52:39;;;;;;;9.70;5.05;;;;;;;15.29;93.69;100132.94;5012601;28;20101;-73
2022/05/24 03:55:05;;;;;;;7.25;4.53;;;;;;;15.56;93.53;100157.50;5012884;28;20160;-70
2022/05/24 04:00:18;;;;;;;7.28;4.82;;;;;;;15.62;94.27;100148.91;4999986;28;20115;-74
2022/05/24 04:02:44;;;;;;;8.35;5.03;;;;;;;15.66;94.61;100166.28;4993212;28;20026;-72
2022/05/24 04:05:09;;;;;;;9.07;4.32;;;;;;;15.64;95.07;100163.69;4993150;28;20046;-72
2022/05/24 04:07:36;;;;;;;7.18;4.32;;;;;;;15.69;94.91;100175.00;4993042;28;20030;-69
2022/05/24 04:10:06;;;;;;;13.38;5.40;;;;;;;15.68;95.74;100175.88;4993281;28;20026;-72
2022/05/24 04:12:32;;;;;;;8.77;4.60;;;;;;;15.81;94.96;100178.59;4992706;28;20038;-73
2022/05/24 04:14:58;;;;;;;10.68;4.78;;;;;;;15.84;93.52;100171.72;4992909;28;20038;-74
2022/05/24 04:17:23;;;;;;;9.07;4.53;;;;;;;15.72;93.81;100153.34;4993152;28;20044;-74
2022/05/24 04:19:49;;;;;;;6.68;4.60;;;;;;;15.79;92.84;100162.97;4992659;28;20019;-72
2022/05/24 04:22:14;;;;;;;8.23;4.70;;;;;;;15.89;93.43;100163.97;4992091;28;20034;-74
2022/05/24 04:24:40;;;;;;;10.23;4.65;;;;;;;15.97;93.44;100156.25;4992846;28;20026;-74
2022/05/24 04:27:06;;;;;;;7.95;4.40;;;;;;;15.85;94.08;100134.44;4992740;28;20469;-74
2022/05/24 04:29:32;;;;;;;7.82;4.78;;;;;;;15.95;94.13;100156.25;4992415;28;20456;-74
2022/05/24 04:31:57;;;;;;;10.98;4.60;;;;;;;16.06;94.17;100148.50;4992672;28;20022;-74
2022/05/24 04:34:23;;;;;;;8.23;4.38;;;;;;;16.12;94.05;100151.16;4992219;28;20026;-75
2022/05/24 04:36:48;;;;;;;8.07;4.82;;;;;;;16.13;94.99;100157.25;4992602;28;20073;-73
2022/05/24 04:39:15;;;;;;;6.35;3.88;;;;;;;16.19;92.25;100144.31;4992320;28;20485;-76
2022/05/24 04:44:25;;;;;;;5.20;3.03;;;;;;;16.35;87.38;100160.94;4992458;28;20112;-74
2022/05/24 04:47:09;;;;;;;5.32;2.90;;;;;;;16.33;88.93;100160.03;4992194;28;20030;-75
2022/05/24 04:49:39;;;;;;;8.85;4.22;;;;;;;16.38;90.71;100152.28;4992271;28;20031;-75
2022/05/24 04:52:07;;;;;;;11.45;4.35;;;;;;;16.54;92.34;100166.31;4992059;28;20412;-75
2022/05/24 04:54:32;;;;;;;7.55;4.15;;;;;;;16.57;90.92;100161.94;4992065;28;20484;-72
2022/05/24 04:56:58;;;;;;;9.48;3.55;;;;;;;16.60;91.58;100162.00;4992187;28;20029;-71
2022/05/24 04:59:24;;;;;;;10.68;4.13;;;;;;;16.56;90.94;100165.44;4991768;28;20050;-72
2022/05/24 05:01:51;;;;;;;5.90;3.80;;;;;;;16.61;92.00;100173.28;4974633;28;20046;-71
2022/05/24 05:04:18;;;;;;;6.63;3.67;;;;;;;16.20;91.50;100125.22;5003747;28;20038;-72
2022/05/24 05:06:44;;;;;;;6.80;3.65;;;;;;;16.60;90.97;100180.22;5011727;28;20022;-73
2022/05/24 05:09:10;;;;;;;7.18;3.95;;;;;;;16.36;92.51;100159.19;5011965;28;20049;-70
2022/05/24 05:11:36;;;;;;;6.10;3.58;;;;;;;16.46;93.12;100194.88;5011186;28;20030;-72
2022/05/24 05:14:01;;;;;;;8.07;3.53;;;;;;;16.18;93.51;100205.91;5011835;28;20491;-70
2022/05/24 05:16:26;;;;;;;7.65;4.10;;;;;;;15.77;96.79;100214.13;5010900;28;20139;-72
2022/05/24 05:18:52;;;;;;;6.13;3.63;;;;;;;15.97;96.59;100209.19;5008645;28;20030;-70
2022/05/24 05:21:17;;;;;;;7.20;4.20;;;;;;;16.09;96.63;100189.34;4991895;28;20374;-73
2022/05/24 05:23:43;;;;;;;8.88;4.30;;;;;;;16.04;94.75;100150.25;4992000;28;20436;-70
2022/05/24 05:26:08;;;;;;;6.90;3.92;;;;;;;16.49;93.20;100184.50;4992073;28;20053;-74
2022/05/24 05:28:33;;;;;;;5.53;3.55;;;;;;;16.59;94.01;100155.03;4991928;28;20457;-71
2022/05/24 05:31:17;;;;;;;6.82;3.42;;;;;;;16.74;89.86;100177.72;4991878;28;20469;-73
2022/05/24 05:33:44;;;;;;;5.78;3.65;;;;;;;16.75;90.27;100192.50;4990856;28;20050;-70
2022/05/24 05:36:11;;;;;;;6.72;3.67;;;;;;;16.90;91.42;100196.97;4991743;28;20104;-74
2022/05/24 05:38:36;;;;;;;8.25;3.40;;;;;;;16.86;90.33;100170.84;4991861;28;20384;-73
2022/05/24 05:41:04;;;;;;;5.30;3.40;;;;;;;17.03;89.32;100184.88;4991619;28;20034;-72
2022/05/24 05:43:30;;;;;;;5.53;2.78;;;;;;;17.22;88.08;100192.81;4991394;28;20383;-72
2022/05/24 05:45:58;;;;;;;6.05;3.30;;;;;;;17.33;84.52;100193.75;4991756;28;20041;-73
2022/05/24 05:48:25;;;;;;;7.93;2.67;;;;;;;17.40;79.67;100194.66;4973884;28;20056;-73
2022/05/24 05:50:51;;;;;;;4.50;2.60;;;;;;;17.56;78.01;100177.34;4973850;28;20277;-73
2022/05/24 05:53:18;;;;;;;4.20;2.45;;;;;;;17.87;77.89;100188.72;4991471;28;20033;-73
2022/05/24 05:55:43;;;;;;;6.03;2.78;;;;;;;18.07;77.55;100190.56;4991363;28;20046;-73
2022/05/24 05:58:10;;;;;;;4.35;2.90;;;;;;;18.08;77.18;100182.72;4991156;28;20100;-74
2022/05/24 06:00:37;;;;;;;7.22;3.60;;;;;;;17.86;78.00;100180.91;4991443;28;20026;-73
2022/05/24 06:03:02;;;;;;;10.52;2.90;;;;;;;17.81;74.52;100146.94;4991490;28;20125;-72
2022/05/24 06:05:28;;;;;;;4.85;2.42;;;;;;;18.11;71.65;100181.84;4991436;28;20540;-69
2022/05/24 06:08:00;;;;;;;4.13;2.70;;;;;;;18.30;71.44;100185.34;4991585;28;20589;-69
2022/05/24 06:10:28;;;;;;;4.97;2.70;;;;;;;18.26;70.87;100181.84;4990811;28;20072;-72
2022/05/24 06:12:55;;;;;;;6.70;3.05;;;;;;;18.19;72.91;100190.53;4991072;28;20034;-72
2022/05/24 06:15:21;;;;;;;13.23;3.40;;;;;;;18.26;73.73;100188.81;4993432;28;20034;-74
2022/05/24 06:17:49;;;;;;;5.10;2.60;;;;;;;18.48;71.41;100189.72;5000802;28;20542;-72
2022/05/24 06:20:21;;;;;;;6.88;2.65;;;;;;;18.62;72.48;100208.00;5008659;28;20037;-73
2022/05/24 06:22:49;;;;;;;5.35;2.60;;;;;;;18.37;70.98;100170.53;5010721;28;20026;-73
2022/05/24 06:25:16;;;;;;;7.38;2.58;;;;;;;18.55;70.84;100186.19;5009852;28;20038;-73
2022/05/24 06:27:42;;;;;;;5.95;2.80;;;;;;;18.78;70.84;100206.25;5010287;28;20022;-73
2022/05/24 06:30:08;;;;;;;6.60;3.08;;;;;;;18.74;72.16;100204.50;5001826;28;20033;-70
2022/05/24 06:32:33;;;;;;;4.03;2.53;;;;;;;18.71;72.10;100207.13;5007463;28;20492;-73
2022/05/24 06:34:59;;;;;;;8.63;3.80;;;;;;;18.53;73.72;100206.25;4999804;28;20038;-73
2022/05/24 06:37:24;;;;;;;7.45;3.30;;;;;;;18.41;73.07;100169.66;4997509;28;20033;-73
2022/05/24 06:39:50;;;;;;;10.65;3.10;;;;;;;18.64;72.16;100197.53;5000101;28;20038;-70
2022/05/24 06:42:16;;;;;;;7.57;3.00;;;;;;;18.71;71.90;100201.91;4994508;28;20037;-70
2022/05/24 06:44:41;;;;;;;6.05;2.72;;;;;;;18.79;71.09;100199.25;4991438;28;20053;-73
2022/05/24 06:47:07;;;;;;;4.80;2.70;;;;;;;18.84;72.30;100192.28;5007552;28;20038;-74
2022/05/24 06:49:33;;;;;;;7.25;3.13;;;;;;;18.87;71.07;100185.31;4994101;28;20026;-74
2022/05/24 06:51:58;;;;;;;8.27;2.78;;;;;;;19.05;70.44;100199.25;4994687;28;20050;-72
2022/05/24 06:54:24;;;;;;;5.55;2.83;;;;;;;19.14;69.18;100186.16;4984384;28;20034;-73
2022/05/24 06:56:50;;;;;;;6.05;3.00;;;;;;;19.26;72.16;100202.69;4997533;28;20050;-74
2022/05/24 07:04:44;;;;;;;6.07;2.67;;;;;;;19.47;67.62;100192.13;4994369;28;20458;-74
2022/05/24 07:07:09;;;;;;;5.97;2.85;;;;;;;19.53;67.13;100204.34;4994537;28;20022;-72
2022/05/24 07:09:37;;;;;;;6.63;2.90;;;;;;;19.40;68.12;100165.13;4993179;28;20420;-73
2022/05/24 07:12:03;;;;;;;4.13;2.70;;;;;;;19.58;67.16;100199.06;4979977;28;20154;-71
2022/05/24 07:14:29;;;;;;;5.07;2.83;;;;;;;19.57;68.10;100179.88;4974429;28;20047;-73
2022/05/24 07:16:54;;;;;;;4.70;2.95;;;;;;;19.46;67.30;100179.91;4970822;28;20034;-73
2022/05/24 07:19:20;;;;;;;7.35;3.15;;;;;;;19.51;67.26;100206.94;4970420;28;20029;-73
2022/05/24 07:21:45;;;;;;;7.00;3.13;;;;;;;19.75;65.89;100206.84;4969041;28;20043;-73
2022/05/24 07:24:11;;;;;;;6.53;2.83;;;;;;;19.98;65.76;100219.88;4971094;28;20082;-73
2022/05/24 07:26:37;;;;;;;7.10;2.60;;;;;;;20.10;66.98;100219.81;4971115;28;20512;-72
2022/05/24 07:29:03;;;;;;;4.25;2.53;;;;;;;20.26;64.29;100209.19;4940069;28;20047;-73
2022/05/24 07:31:29;;;;;;;3.58;2.50;;;;;;;20.35;65.65;100215.25;4970362;28;20489;-72
2022/05/24 07:33:54;;;;;;;5.47;2.80;;;;;;;20.35;67.04;100212.63;4970792;28;20121;-73
2022/05/24 07:36:20;;;;;;;5.90;2.60;;;;;;;20.52;65.53;100223.00;4983026;28;20049;-70
2022/05/24 07:38:46;;;;;;;6.03;2.63;;;;;;;20.60;65.40;100215.06;4985843;28;20081;-74
2022/05/24 07:46:39;;;;;;;7.15;2.83;;;;;;;20.43;63.67;100214.31;4993960;28;20092;-71
2022/05/24 07:49:05;;;;;;;8.82;2.75;;;;;;;19.98;64.24;100155.22;4993305;28;20035;-72
2022/05/24 07:51:31;;;;;;;5.60;2.47;;;;;;;20.14;63.73;100192.69;4993553;28;20018;-73
2022/05/24 07:53:56;;;;;;;4.70;2.40;;;;;;;20.42;64.01;100196.84;4991747;28;20105;-72
2022/05/24 07:56:22;;;;;;;4.00;2.22;;;;;;;20.36;64.12;100159.31;4973953;28;20026;-73
2022/05/24 07:58:47;;;;;;;6.00;2.55;;;;;;;20.67;64.33;100193.16;4992796;28;20509;-74
2022/05/24 08:01:15;;;;;;;8.07;2.25;;;;;;;20.58;63.22;100158.25;4992719;28;20477;-72
2022/05/24 08:03:40;;;;;;;4.68;2.53;;;;;;;20.94;61.90;100180.66;4992436;28;20113;-72
2022/05/24 08:06:07;;;;;;;5.22;2.30;;;;;;;20.94;62.66;100188.53;4992534;28;20105;-74
2022/05/24 08:08:33;;;;;;;5.60;2.30;;;;;;;20.94;61.62;100183.28;4992240;28;20030;-73
2022/05/24 08:10:59;;;;;;;4.13;2.47;;;;;;;20.94;64.30;100175.41;4991854;28;20031;-75
2022/05/24 08:13:24;;;;;;;5.20;2.20;;;;;;;20.96;62.62;100157.00;4992281;28;20029;-74
2022/05/24 08:15:51;;;;;;;5.10;2.10;;;;;;;21.30;61.45;100188.16;4974679;28;20026;-73
2022/05/24 08:18:17;;;;;;;3.85;2.30;;;;;;;21.34;62.52;100187.22;4992371;28;20037;-74
2022/05/24 08:20:43;;;;;;;4.13;2.28;;;;;;;21.42;63.01;100182.75;4974985;28;20018;-74
2022/05/24 08:23:08;;;;;;;5.90;2.20;;;;;;;21.56;62.95;100181.72;4993246;28;20516;-72
2022/05/24 08:25:34;;;;;;;6.05;2.55;;;;;;;21.52;67.34;100170.38;4992343;28;20027;-72
2022/05/24 08:28:04;;;;;;;9.45;2.30;;;;;;;21.64;66.45;100179.88;4992309;28;20434;-72
2022/05/24 08:30:31;;;;;;;6.88;2.38;;;;;;;21.73;63.14;100168.38;4993978;28;20045;-72
2022/05/24 08:32:57;;;;;;;6.95;2.30;;;;;;;21.41;62.46;100152.13;4992237;28;20058;-73
2022/05/24 08:35:23;;;;;;;4.40;2.13;;;;;;;21.45;63.87;100142.44;4990931;28;20030;-73
2022/05/24 08:37:49;;;;;;;6.15;2.53;;;;;;;21.40;63.47;100139.88;4991752;28;20026;-73
2022/05/24 08:40:18;;;;;;;3.75;2.03;;;;;;;21.70;62.41;100158.78;4991045;28;20373;-71
2022/05/24 08:43:02;;;;;;;4.15;2.38;;;;;;;21.72;61.86;100129.84;4991669;28;20030;-71
2022/05/24 08:48:40;;;;;;;6.15;2.28;;;;;;;22.22;59.24;100143.09;5005643;28;20036;-74
2022/05/24 08:51:24;;;;;;;5.95;2.28;;;;;;;22.33;59.03;100143.81;5004879;28;20062;-72
2022/05/24 08:53:53;;;;;;;5.63;2.42;;;;;;;22.23;61.05;100136.94;5006382;28;20037;-72
2022/05/24 08:56:33;;;;;;;11.70;2.90;;;;;;;22.32;58.60;100135.91;5011185;28;20022;-76
2022/05/24 08:59:17;;;;;;;8.07;2.25;;;;;;;22.37;59.12;100116.56;5007031;28;20514;-74
2022/05/24 09:01:44;;;;;;;5.80;2.75;;;;;;;22.67;59.20;100132.72;5010310;28;20049;-74
2022/05/24 09:04:12;;;;;;;6.22;2.33;;;;;;;22.71;57.58;100125.63;5010636;28;20029;-71
2022/05/24 09:06:59;;;;;;;6.90;2.85;;;;;;;22.94;57.14;100143.59;5010962;28;20029;-73
2022/05/24 09:09:43;;;;;;;4.57;2.35;;;;;;;;;;4991091;28;20042;-73
2022/05/24 09:12:23;;;;;;;7.22;2.30;;;;;;;23.05;57.83;100136.38;4990324;28;20033;-73
2022/05/24 09:15:00;;;;;;;6.10;2.30;;;;;;;23.27;57.12;100123.66;4990899;28;20027;-75
2022/05/24 09:17:32;;;;;;;4.25;2.22;;;;;;;23.04;57.89;100121.47;4990456;28;20049;-74
2022/05/24 09:19:58;;;;;;;3.95;2.50;;;;;;;23.09;58.04;100130.13;4990115;28;20034;-75
2022/05/24 09:22:23;;;;;;;5.85;2.40;;;;;;;23.40;56.40;100128.66;4990451;28;20045;-74
2022/05/24 09:24:56;;;;;;;4.97;2.58;;;;;;;23.49;55.18;100128.47;4970648;28;20070;-74
2022/05/24 09:27:30;;;;;;;4.30;2.33;;;;;;;23.69;55.81;100114.84;5003123;28;20117;-73
2022/05/24 09:30:13;;;;;;;19.90;3.75;;;;;;;24.10;53.22;100125.34;4989291;28;20038;-74
2022/05/24 09:32:44;;;;;;;5.97;2.30;;;;;;;24.17;51.84;100126.03;4990299;28;20026;-74
2022/05/24 09:35:13;;;;;;;3.08;1.80;;;;;;;24.17;51.78;100115.50;4997377;28;20061;-73
2022/05/24 09:37:41;;;;;;;7.35;2.20;;;;;;;24.30;51.61;100124.84;4993160;28;20037;-74
2022/05/24 09:40:17;;;;;;;5.00;2.63;;;;;;;24.35;50.36;100117.66;4990435;28;20038;-74
2022/05/24 09:42:42;;;;;;;4.80;2.00;;;;;;;24.48;50.73;100123.47;4990945;28;20030;-73
2022/05/24 09:45:17;;;;;;;3.90;1.90;;;;;;;24.25;51.25;100113.53;4990607;28;20050;-74
2022/05/24 09:47:45;;;;;;;4.20;2.15;;;;;;;24.15;49.24;100114.66;4990272;28;20037;-70
2022/05/24 09:50:35;;;;;;;8.02;2.42;;;;;;;24.33;48.86;100116.81;4989977;28;20042;-70
2022/05/24 09:53:08;;;;;;;5.65;2.38;;;;;;;24.51;48.55;100114.63;4989782;28;20030;-72
2022/05/24 09:55:36;;;;;;;3.58;2.10;;;;;;;24.76;47.50;100119.28;5000609;28;20042;-72
2022/05/24 09:58:37;;;;;;;3.70;1.85;;;;;;;24.92;47.57;100111.78;5008228;28;20054;-75
2022/05/24 10:01:14;;;;;;;5.55;2.25;;;;;;;24.84;46.09;100077.69;5004754;28;20044;-75
2022/05/24 10:03:43;;;;;;;7.00;2.63;;;;;;;25.01;45.48;100099.19;5007527;28;20022;-74
2022/05/24 10:06:12;;;;;;;2.83;1.88;;;;;;;25.08;45.83;100094.59;5010131;28;20069;-75
2022/05/24 10:08:43;;;;;;;5.35;1.95;;;;;;;25.02;45.34;100086.84;5000737;28;20069;-75
2022/05/24 10:11:26;;;;;;;3.17;1.73;;;;;;;25.04;45.88;100103.53;5010852;28;20026;-75
2022/05/24 10:14:12;;;;;;;5.20;2.08;;;;;;;25.11;45.81;100094.50;5010939;28;20022;-75
2022/05/24 10:17:09;;;;;;;4.03;2.20;;;;;;;25.34;43.91;100093.81;4990996;28;20117;-75
2022/05/24 10:19:35;;;;;;;5.22;2.05;;;;;;;25.67;44.46;100099.00;4931016;29;20528;-69
2022/05/24 10:22:20;;;;;;;3.30;2.17;;;;;;;25.48;44.76;100096.09;4936207;29;20047;-72
2022/05/24 10:25:04;;;;;;;4.80;2.15;;;;;;;25.52;44.87;100065.09;4936202;29;20044;-73
2022/05/24 10:27:42;;;;;;;6.15;2.25;;;;;;;25.79;43.98;100075.72;4936430;29;20023;-72
2022/05/24 10:30:23;;;;;;;5.55;2.33;;;;;;;25.87;43.70;100068.41;4936213;29;20099;-71
2022/05/24 10:39:11;;;;;;;3.97;2.17;;;;;;;25.74;44.86;100089.09;4936342;29;20081;-72
2022/05/24 10:41:55;;;;;;;4.13;2.53;;;;;;;25.62;45.59;100098.28;4936151;29;20486;-73
2022/05/24 10:44:36;;;;;;;5.15;2.60;;;;;;;25.37;45.60;100087.59;4937421;29;20074;-73
2022/05/24 10:47:06;;;;;;;3.20;2.40;;;;;;;25.40;45.99;100087.50;4937441;29;20036;-73
2022/05/24 10:49:56;;;;;;;5.50;2.65;;;;;;;24.64;48.73;100006.97;4933343;29;20035;-73
2022/05/24 10:52:47;;;;;;;5.38;2.10;;;;;;;25.31;47.36;100091.28;4905028;29;20048;-71
2022/05/24 10:55:23;;;;;;;4.05;2.50;;;;;;;25.08;47.30;100088.44;4935793;29;20226;-73
2022/05/24 10:57:58;;;;;;;5.13;2.45;;;;;;;24.97;49.55;100084.34;4996557;28;20544;-73
2022/05/24 11:00:47;;;;;;;5.30;2.75;;;;;;;25.04;49.92;100082.38;4996527;28;20038;-73
2022/05/24 11:03:29;;;;;;;4.63;2.70;;;;;;;25.35;49.00;100089.41;4979057;28;20061;-73
2022/05/24 11:06:13;;;;;;;6.18;2.53;;;;;;;25.65;48.15;100084.97;4996953;28;20034;-74
2022/05/24 11:09:00;;;;;;;5.47;2.45;;;;;;;25.86;47.56;100077.25;4996422;28;20018;-71
2022/05/24 11:11:34;;;;;;;4.07;2.40;;;;;;;25.94;46.55;100077.84;4996191;28;20030;-74
2022/05/24 11:14:10;;;;;;;7.10;2.58;;;;;;;25.93;47.89;100062.03;4996123;28;20589;-73
2022/05/24 11:16:43;;;;;;;3.00;2.42;;;;;;;26.08;47.01;100058.06;4995954;28;20381;-73
2022/05/24 11:19:19;;;;;;;6.82;2.70;;;;;;;26.21;47.45;100055.88;4998020;28;20073;-74
2022/05/24 11:21:58;;;;;;;6.35;2.42;;;;;;;26.28;47.47;100046.78;5015909;28;20061;-72
2022/05/24 11:24:41;;;;;;;4.47;2.53;;;;;;;26.14;46.41;100041.97;5016974;28;20060;-74
2022/05/24 11:27:12;;;;;;;6.78;2.92;;;;;;;26.21;46.87;100018.81;4996742;28;20041;-74
2022/05/24 11:29:49;;;;;;;5.78;2.50;;;;;;;26.35;46.31;100026.28;5004097;28;20561;-73
2022/05/24 11:32:30;;;;;;;5.95;2.85;;;;;;;26.40;47.51;100019.03;4998493;28;20052;-73
2022/05/24 11:35:01;;;;;;;6.00;2.40;;;;;;;26.48;47.42;100006.34;4993577;28;20492;-74
2022/05/24 11:37:35;;;;;;;6.00;2.47;;;;;;;26.48;47.29;100001.94;4993100;28;20168;-73
2022/05/24 11:40:36;;;;;;;8.00;2.95;;;;;;;26.52;47.16;100010.66;4992974;28;20014;-74
2022/05/24 11:43:31;;;;;;;4.22;2.47;;;;;;;26.37;47.48;99987.34;4993091;28;20030;-73
2022/05/24 11:46:06;;;;;;;3.70;2.38;;;;;;;26.40;47.77;99992.56;4932019;29;20048;-75
2022/05/24 11:48:51;;;;;;;7.75;2.65;;;;;;;26.27;48.69;100008.88;4932609;29;20058;-73
2022/05/24 11:51:39;;;;;;;10.32;2.70;;;;;;;26.30;48.22;100015.84;4933307;29;20095;-73
2022/05/24 11:54:24;;;;;;;4.97;2.45;;;;;;;26.05;49.10;100000.78;4932797;29;20485;-73
2022/05/24 11:57:02;;;;;;;5.95;2.45;;;;;;;25.54;50.38;100017.50;4913667;29;20702;-74
2022/05/24 11:59:48;;;;;;;5.72;2.63;;;;;;;25.72;49.82;100010.75;4914997;29;20056;-71
2022/05/24 12:02:24;;;;;;;7.45;2.78;;;;;;;25.73;49.75;100009.81;4898044;29;20032;-73
2022/05/24 12:08:04;;;;;;;9.38;3.00;;;;;;;25.47;49.47;99985.09;4893652;29;20047;-74
2022/05/24 12:10:51;;;;;;;8.40;2.78;;;;;;;25.74;49.71;100019.50;4892119;29;20051;-73
2022/05/24 12:13:30;;;;;;;6.82;2.80;;;;;;;25.75;49.48;100013.28;4887103;29;20037;-70
2022/05/24 12:16:00;;;;;;;;;;;;;;;25.72;50.21;100013.38;4890871;29;20044;-73
2022/05/24 12:18:44;;;;;;;5.80;2.50;;;;;;;25.72;50.57;100005.44;4890386;29;20313;-73
2022/05/24 12:21:30;;;;;;;5.18;2.63;;;;;;;25.72;50.64;99997.53;4891594;29;20096;-72
2022/05/24 12:24:30;;;;;;;6.30;2.72;;;;;;;25.87;51.91;100015.53;4921393;29;20195;-74
2022/05/24 12:27:19;;;;;;;6.55;2.65;;;;;;;25.59;51.64;100044.66;4931053;29;20043;-73